createdAt,value
2022-09-22T00:02:01.186Z,1.90
2022-09-22T00:05:03.656Z,1.50
2022-09-22T00:08:05.152Z,1.70
2022-09-22T00:11:16.769Z,1.80
2022-09-22T00:14:27.177Z,1.90
2022-09-22T00:17:31.434Z,1.93
2022-09-22T00:20:32.795Z,1.73
2022-09-22T00:23:34.249Z,1.93
2022-09-22T00:26:37.889Z,1.97
2022-09-22T00:29:39.265Z,1.70
2022-09-22T00:32:40.627Z,1.50
2022-09-22T00:35:41.996Z,1.80
2022-09-22T00:38:44.132Z,1.70
2022-09-22T00:41:48.961Z,1.73
2022-09-22T00:44:50.550Z,1.83
2022-09-22T00:47:51.977Z,1.63
2022-09-22T00:50:56.042Z,1.90
2022-09-22T00:53:59.754Z,1.90
2022-09-22T00:57:11.308Z,1.77
2022-09-22T01:00:13.842Z,1.73
2022-09-22T01:03:19.756Z,1.67
2022-09-22T01:06:26.620Z,1.80
2022-09-22T01:09:29.576Z,1.60
2022-09-22T01:12:32.152Z,1.73
2022-09-22T01:15:46.318Z,1.53
2022-09-22T01:19:23.733Z,1.43
2022-09-22T01:22:47.054Z,1.63
2022-09-22T01:26:15.317Z,1.50
2022-09-22T01:29:46.600Z,1.77
2022-09-22T01:33:00.908Z,2.13
2022-09-22T01:36:04.965Z,1.80
2022-09-22T01:39:22.700Z,2.20
2022-09-22T01:42:52.577Z,2.70
2022-09-22T01:45:54.866Z,2.77
2022-09-22T01:49:00.676Z,2.47
2022-09-22T01:52:14.366Z,2.33
2022-09-22T01:55:30.077Z,3.23
2022-09-22T01:58:49.726Z,3.43
2022-09-22T02:01:57.075Z,3.77
2022-09-22T02:05:02.482Z,2.53
2022-09-22T02:08:13.390Z,2.10
2022-09-22T02:11:16.156Z,1.97
2022-09-22T02:14:17.634Z,1.80
2022-09-22T02:17:19.477Z,1.67
2022-09-22T02:20:21.494Z,2.00
2022-09-22T02:23:22.945Z,1.60
2022-09-22T02:26:28.481Z,1.70
2022-09-22T02:29:37.288Z,1.80
2022-09-22T02:32:46.105Z,2.10
2022-09-22T02:35:54.494Z,1.90
2022-09-22T02:39:13.078Z,1.70
2022-09-22T02:42:38.220Z,1.90
2022-09-22T02:45:54.919Z,1.57
2022-09-22T02:49:01.122Z,1.70
2022-09-22T02:52:07.908Z,2.30
2022-09-22T02:55:13.846Z,2.00
2022-09-22T02:58:16.903Z,1.90
2022-09-22T03:01:18.392Z,1.70
2022-09-22T03:04:19.852Z,1.83
2022-09-22T03:07:21.233Z,1.97
2022-09-22T03:10:22.596Z,1.67
2022-09-22T03:13:24.016Z,1.90
2022-09-22T03:16:25.420Z,1.73
2022-09-22T03:19:27.143Z,1.60
2022-09-22T03:22:28.605Z,1.97
2022-09-22T03:25:30.037Z,1.80
2022-09-22T03:28:31.449Z,1.70
2022-09-22T03:31:32.889Z,1.80
2022-09-22T03:34:34.557Z,1.77
2022-09-22T03:37:36.062Z,1.63
2022-09-22T03:40:37.527Z,1.90
2022-09-22T03:43:38.986Z,1.90
2022-09-22T03:46:40.449Z,1.60
2022-09-22T03:49:41.820Z,1.73
2022-09-22T03:52:44.848Z,1.90
2022-09-22T03:55:46.221Z,1.83
2022-09-22T03:58:47.842Z,2.00
2022-09-22T04:01:49.277Z,2.00
2022-09-22T04:04:50.712Z,1.90
2022-09-22T04:07:52.490Z,1.73
2022-09-22T04:10:54.177Z,1.70
2022-09-22T04:13:55.777Z,1.50
2022-09-22T04:16:57.203Z,1.60
2022-09-22T04:19:59.380Z,1.77
2022-09-22T04:23:00.856Z,1.97
2022-09-22T04:26:02.775Z,1.90
2022-09-22T04:29:04.412Z,1.50
2022-09-22T04:32:06.009Z,1.77
2022-09-22T04:35:08.226Z,1.90
2022-09-22T04:38:10.542Z,2.57
2022-09-22T04:41:11.909Z,2.20
2022-09-22T04:44:13.288Z,2.00
2022-09-22T04:47:14.773Z,2.23
2022-09-22T04:50:17.721Z,1.90
2022-09-22T04:53:19.509Z,1.77
2022-09-22T04:56:21.916Z,2.10
2022-09-22T04:59:23.396Z,1.87
2022-09-22T05:02:24.797Z,2.20
2022-09-22T05:05:28.006Z,2.20
2022-09-22T05:08:30.011Z,2.10
2022-09-22T05:11:31.778Z,2.33
2022-09-22T05:14:34.552Z,2.30
2022-09-22T05:17:36.196Z,2.20
2022-09-22T05:20:39.168Z,2.53
2022-09-22T05:23:40.859Z,2.17
2022-09-22T05:26:42.226Z,2.23
2022-09-22T05:29:43.628Z,2.23
2022-09-22T05:32:46.293Z,2.53
2022-09-22T05:35:47.648Z,2.43
2022-09-22T05:38:49.030Z,2.30
2022-09-22T05:41:50.426Z,2.30
2022-09-22T05:44:51.811Z,2.13
2022-09-22T05:47:53.601Z,2.17
2022-09-22T05:50:55.005Z,2.40
2022-09-22T05:53:56.488Z,2.23
2022-09-22T05:56:57.914Z,2.43
2022-09-22T05:59:59.834Z,2.23
2022-09-22T06:03:01.252Z,2.47
2022-09-22T06:06:02.835Z,2.30
2022-09-22T06:09:04.236Z,2.20
2022-09-22T06:12:08.222Z,2.47
2022-09-22T06:15:10.028Z,2.53
2022-09-22T06:18:14.928Z,3.00
2022-09-22T06:21:17.293Z,2.63
2022-09-22T06:24:18.660Z,2.60
2022-09-22T06:27:20.043Z,2.43
2022-09-22T06:30:21.591Z,2.23
2022-09-22T06:33:23.818Z,2.30
2022-09-22T06:36:30.387Z,2.63
2022-09-22T06:39:31.772Z,3.47
2022-09-22T06:42:33.160Z,5.00
2022-09-22T06:45:34.784Z,4.20
2022-09-22T06:48:37.554Z,3.80
2022-09-22T06:51:39.834Z,3.30
2022-09-22T06:54:42.040Z,3.40
2022-09-22T06:57:43.660Z,3.13
2022-09-22T07:00:45.221Z,3.10
2022-09-22T07:03:46.885Z,3.43
2022-09-22T07:06:50.270Z,3.60
2022-09-22T07:09:51.746Z,3.80
2022-09-22T07:12:54.190Z,3.30
2022-09-22T07:16:00.736Z,3.50
2022-09-22T07:19:02.156Z,4.73
2022-09-22T07:22:03.532Z,4.37
2022-09-22T07:25:07.045Z,3.60
2022-09-22T07:28:13.565Z,3.30
2022-09-22T07:31:16.396Z,3.30
2022-09-22T07:34:18.584Z,4.60
2022-09-22T07:37:19.950Z,3.27
2022-09-22T07:40:21.966Z,3.10
2022-09-22T07:43:24.232Z,2.60
2022-09-22T07:46:25.647Z,2.03
2022-09-22T07:49:27.132Z,2.03
2022-09-22T07:52:29.868Z,2.03
2022-09-22T07:55:34.458Z,1.93
2022-09-22T07:58:35.958Z,2.10
2022-09-22T08:01:44.130Z,1.80
2022-09-22T08:04:46.060Z,1.73
2022-09-22T08:07:47.805Z,2.00
2022-09-22T08:10:49.180Z,1.70
2022-09-22T08:13:55.068Z,1.80
2022-09-22T08:16:57.234Z,1.90
2022-09-22T08:20:01.340Z,2.00
2022-09-22T08:23:04.916Z,2.10
2022-09-22T08:26:08.479Z,1.97
2022-09-22T08:29:10.775Z,2.07
2022-09-22T08:32:12.805Z,2.30
2022-09-22T08:35:14.394Z,2.27
2022-09-22T08:38:16.696Z,1.80
2022-09-22T08:41:39.169Z,2.20
2022-09-22T08:44:51.810Z,2.00
2022-09-22T08:48:15.540Z,1.90
2022-09-22T08:51:49.188Z,2.00
2022-09-22T08:54:51.274Z,1.87
2022-09-22T08:58:06.475Z,2.07
2022-09-22T09:01:28.553Z,1.90
2022-09-22T09:04:47.005Z,3.60
2022-09-22T09:08:14.873Z,2.30
2022-09-22T09:11:19.213Z,2.30
2022-09-22T09:14:40.329Z,2.20
2022-09-22T09:17:46.049Z,1.80
2022-09-22T09:20:49.145Z,2.10
2022-09-22T09:27:25.217Z,1.80
2022-09-22T09:30:31.325Z,1.80
2022-09-22T09:34:03.769Z,2.00
2022-09-22T09:37:12.776Z,2.10
2022-09-22T09:40:18.125Z,1.70
2022-09-22T09:43:23.787Z,1.60
2022-09-22T09:46:49.569Z,1.77
2022-09-22T09:49:52.805Z,1.60
2022-09-22T09:52:54.557Z,1.70
2022-09-22T09:55:55.949Z,1.77
2022-09-22T09:59:18.673Z,1.47
2022-09-22T10:02:28.443Z,1.70
2022-09-22T10:05:32.353Z,1.60
2022-09-22T10:08:45.510Z,1.73
2022-09-22T10:11:57.850Z,1.67
2022-09-22T10:15:01.268Z,1.60
2022-09-22T10:18:23.645Z,1.13
2022-09-22T10:21:26.318Z,1.27
2022-09-22T10:24:31.612Z,1.33
2022-09-22T10:27:33.065Z,1.20
2022-09-22T10:30:37.744Z,1.30
2022-09-22T10:33:54.448Z,1.40
2022-09-22T10:36:57.377Z,1.20
2022-09-22T10:40:02.312Z,1.30
2022-09-22T10:43:06.781Z,1.00
2022-09-22T10:46:34.652Z,1.13
2022-09-22T10:50:12.353Z,1.30
2022-09-22T10:53:32.066Z,1.30
2022-09-22T10:56:38.721Z,1.23
2022-09-22T11:00:10.726Z,1.20
2022-09-22T11:03:41.324Z,1.13
2022-09-22T11:07:15.221Z,1.00
2022-09-22T11:10:46.565Z,1.30
2022-09-22T11:14:10.963Z,1.23
2022-09-22T11:17:45.247Z,1.60
2022-09-22T11:21:31.235Z,1.20
2022-09-22T11:24:49.632Z,1.30
2022-09-22T11:27:59.946Z,1.30
2022-09-22T11:31:01.733Z,1.33
2022-09-22T11:34:21.520Z,1.23
2022-09-22T11:37:37.083Z,1.10
2022-09-22T11:41:02.435Z,1.00
2022-09-22T11:44:20.265Z,1.20
2022-09-22T11:47:47.201Z,1.20
2022-09-22T11:51:15.166Z,1.17
2022-09-22T11:54:50.593Z,1.30
2022-09-22T11:57:58.437Z,1.07
2022-09-22T12:01:12.960Z,1.50
2022-09-22T12:04:39.786Z,1.20
2022-09-22T12:08:09.856Z,1.10
2022-09-22T12:11:14.063Z,1.30
2022-09-22T12:14:15.959Z,1.20
2022-09-22T12:17:24.076Z,1.17
2022-09-22T12:20:41.752Z,1.40
2022-09-22T12:23:47.740Z,1.30
2022-09-22T12:26:53.561Z,1.67
2022-09-22T12:29:57.890Z,1.37
2022-09-22T12:32:59.438Z,1.30
2022-09-22T12:36:02.669Z,1.40
2022-09-22T12:39:28.874Z,1.07
2022-09-22T12:42:37.693Z,1.40
2022-09-22T12:45:42.822Z,1.50
2022-09-22T12:48:45.901Z,1.50
2022-09-22T12:51:47.276Z,1.50
2022-09-22T12:54:48.749Z,1.33
2022-09-22T12:57:52.208Z,1.30
2022-09-22T13:00:56.205Z,1.37
2022-09-22T13:04:16.688Z,1.30
2022-09-22T13:07:40.039Z,1.50
2022-09-22T13:10:42.671Z,1.50
2022-09-22T13:13:45.508Z,1.13
2022-09-22T13:16:47.575Z,1.30
2022-09-22T13:19:55.883Z,1.40
2022-09-22T13:23:11.934Z,1.50
2022-09-22T13:26:13.998Z,1.30
2022-09-22T13:29:18.262Z,1.30
2022-09-22T13:32:26.568Z,1.20
2022-09-22T13:35:33.413Z,1.37
2022-09-22T13:38:38.739Z,1.13
2022-09-22T13:41:46.116Z,1.03
2022-09-22T13:44:56.310Z,1.43
2022-09-22T13:48:08.659Z,1.60
2022-09-22T13:51:14.780Z,1.67
2022-09-22T13:54:22.714Z,1.20
2022-09-22T13:57:28.660Z,1.40
2022-09-22T14:01:08.626Z,1.40
2022-09-22T14:04:04.488Z,1.50
2022-09-22T14:07:10.527Z,1.00
2022-09-22T14:10:20.211Z,1.17
2022-09-22T14:13:41.593Z,1.07
2022-09-22T14:16:50.922Z,1.20
2022-09-22T14:20:05.202Z,1.30
2022-09-22T14:23:17.520Z,1.73
2022-09-22T14:26:24.569Z,1.10
2022-09-22T14:29:27.673Z,1.20
2022-09-22T14:32:39.693Z,1.40
2022-09-22T14:35:41.597Z,1.60
2022-09-22T14:38:47.177Z,1.23
2022-09-22T14:41:58.879Z,1.00
2022-09-22T14:45:09.224Z,1.20
2022-09-22T14:48:20.477Z,1.10
2022-09-22T14:51:25.600Z,1.20
2022-09-22T14:54:31.733Z,1.30
2022-09-22T14:57:34.983Z,1.30
2022-09-22T15:00:55.064Z,1.20
2022-09-22T15:04:01.559Z,1.20
2022-09-22T15:07:04.245Z,1.20
2022-09-22T15:10:20.094Z,1.20
2022-09-22T15:13:38.982Z,1.20
2022-09-22T15:16:43.277Z,1.30
2022-09-22T15:19:48.421Z,1.27
2022-09-22T15:22:49.997Z,1.30
2022-09-22T15:25:53.241Z,0.93
2022-09-22T15:28:57.685Z,1.20
2022-09-22T15:32:03.559Z,1.10
2022-09-22T15:35:05.418Z,1.20
2022-09-22T15:38:17.724Z,1.60
2022-09-22T15:41:19.090Z,1.50
2022-09-22T15:44:20.649Z,1.40
2022-09-22T15:47:22.620Z,1.53
2022-09-22T15:50:27.345Z,1.10
2022-09-22T15:53:30.214Z,1.20
2022-09-22T15:56:31.613Z,1.20
2022-09-22T15:59:33.443Z,1.17
2022-09-22T16:02:34.826Z,1.20
2022-09-22T16:05:36.878Z,1.30
2022-09-22T16:08:42.133Z,1.10
2022-09-22T16:11:44.012Z,1.10
2022-09-22T16:14:45.370Z,1.13
2022-09-22T16:17:46.780Z,1.10
2022-09-22T16:20:49.742Z,1.30
2022-09-22T16:23:51.891Z,1.00
2022-09-22T16:26:53.457Z,1.50
2022-09-22T16:29:54.962Z,1.20
2022-09-22T16:32:56.491Z,1.20
2022-09-22T16:35:58.038Z,1.00
2022-09-22T16:39:01.709Z,1.20
2022-09-22T16:42:03.307Z,1.27
2022-09-22T16:45:05.249Z,1.17
2022-09-22T16:48:07.064Z,0.90
2022-09-22T16:51:19.105Z,1.20
2022-09-22T16:54:21.552Z,1.27
2022-09-22T16:57:22.916Z,1.60
2022-09-22T17:00:26.021Z,2.70
2022-09-22T17:03:27.445Z,3.43
2022-09-22T17:06:28.938Z,4.40
2022-09-22T17:09:32.114Z,4.37
2022-09-22T17:12:34.066Z,4.40
2022-09-22T17:15:35.925Z,4.57
2022-09-22T17:18:40.152Z,4.90
2022-09-22T17:21:41.576Z,4.30
2022-09-22T17:24:43.570Z,4.47
2022-09-22T17:27:44.948Z,3.80
2022-09-22T17:30:57.353Z,3.93
2022-09-22T17:33:59.272Z,3.50
2022-09-22T17:37:02.928Z,3.93
2022-09-22T17:40:04.901Z,3.60
2022-09-22T17:43:08.367Z,3.67
2022-09-22T17:46:12.919Z,2.40
2022-09-22T17:49:36.019Z,2.30
2022-09-22T17:52:56.291Z,2.37
2022-09-22T17:56:01.795Z,2.10
2022-09-22T17:59:03.251Z,2.90
2022-09-22T18:02:05.241Z,4.87
2022-09-22T18:05:09.406Z,8.10
2022-09-22T18:08:10.833Z,7.93
2022-09-22T18:11:13.550Z,6.80
2022-09-22T18:14:14.987Z,5.37
2022-09-22T18:17:19.668Z,4.60
2022-09-22T18:20:23.042Z,3.73
2022-09-22T18:23:28.379Z,3.20
2022-09-22T18:26:35.942Z,2.63
2022-09-22T18:29:37.320Z,3.33
2022-09-22T18:32:40.050Z,3.67
2022-09-22T18:35:45.974Z,4.53
2022-09-22T18:38:47.564Z,4.50
2022-09-22T18:41:49.742Z,4.40
2022-09-22T18:44:51.808Z,4.50
2022-09-22T18:47:53.557Z,4.10
2022-09-22T18:50:54.930Z,4.20
2022-09-22T18:53:57.218Z,4.53
2022-09-22T18:56:58.950Z,3.90
2022-09-22T19:00:01.604Z,3.83
2022-09-22T19:03:03.112Z,4.23
2022-09-22T19:06:04.805Z,3.97
2022-09-22T19:09:06.371Z,4.13
2022-09-22T19:12:09.224Z,4.17
2022-09-22T19:15:13.714Z,3.67
2022-09-22T19:18:15.305Z,3.90
2022-09-22T19:21:16.790Z,4.03
2022-09-22T19:24:19.040Z,3.10
2022-09-22T19:27:21.008Z,3.33
2022-09-22T19:30:24.906Z,3.03
2022-09-22T19:33:28.898Z,3.33
2022-09-22T19:36:30.915Z,3.37
2022-09-22T19:39:32.489Z,2.80
2022-09-22T19:42:39.993Z,2.50
2022-09-22T19:45:42.103Z,2.83
2022-09-22T19:48:43.485Z,2.80
2022-09-22T19:51:45.358Z,2.87
2022-09-22T19:54:47.487Z,2.40
2022-09-22T19:57:52.185Z,2.80
2022-09-22T20:00:53.570Z,2.30
2022-09-22T20:03:55.739Z,2.03
2022-09-22T20:06:57.163Z,2.20
2022-09-22T20:09:58.609Z,2.20
2022-09-22T20:13:00.589Z,1.80
2022-09-22T20:16:03.203Z,1.63
2022-09-22T20:19:04.604Z,1.73
2022-09-22T20:22:25.353Z,1.60
2022-09-22T20:25:30.187Z,1.90
2022-09-22T20:28:31.636Z,1.67
2022-09-22T20:31:33.133Z,1.80
2022-09-22T20:34:34.505Z,1.70
2022-09-22T20:37:36.328Z,1.70
2022-09-22T20:40:37.816Z,1.80
2022-09-22T20:43:39.271Z,1.80
2022-09-22T20:46:42.480Z,1.60
2022-09-22T20:49:47.986Z,1.60
2022-09-22T20:52:52.282Z,1.90
2022-09-22T20:55:59.222Z,1.73
2022-09-22T20:59:01.918Z,1.70
2022-09-22T21:02:03.776Z,2.10
2022-09-22T21:05:05.331Z,1.60
2022-09-22T21:08:24.987Z,1.97
2022-09-22T21:11:27.776Z,1.90
2022-09-22T21:14:29.323Z,2.00
2022-09-22T21:17:32.694Z,1.87
2022-09-22T21:20:34.078Z,1.93
2022-09-22T21:23:36.111Z,2.10
2022-09-22T21:26:37.868Z,2.00
2022-09-22T21:29:39.424Z,1.80
2022-09-22T21:32:40.821Z,2.10
2022-09-22T21:35:42.202Z,1.97
2022-09-22T21:38:45.781Z,2.17
2022-09-22T21:41:47.174Z,1.80
2022-09-22T21:44:48.548Z,2.10
2022-09-22T21:47:50.967Z,1.93
2022-09-22T21:51:02.145Z,2.10
2022-09-22T21:54:04.976Z,1.97
2022-09-22T21:57:06.332Z,2.10
2022-09-22T22:00:08.138Z,2.20
2022-09-22T22:03:32.631Z,2.40
2022-09-22T22:06:45.108Z,1.97
2022-09-22T22:09:46.517Z,2.00
2022-09-22T22:12:47.896Z,2.20
2022-09-22T22:15:49.952Z,1.80
2022-09-22T22:18:52.009Z,2.40
2022-09-22T22:21:54.081Z,1.80
2022-09-22T22:24:55.449Z,1.90
2022-09-22T22:27:56.833Z,1.80
2022-09-22T22:31:02.434Z,2.17
2022-09-22T22:34:04.065Z,1.80
2022-09-22T22:37:09.321Z,1.70
2022-09-22T22:40:10.731Z,1.90
2022-09-22T22:43:13.906Z,1.80
2022-09-22T22:46:16.564Z,1.90
2022-09-22T22:49:18.092Z,1.70
2022-09-22T22:52:19.481Z,1.90
2022-09-22T22:55:20.902Z,2.00
2022-09-22T22:58:23.905Z,1.80
2022-09-22T23:01:30.984Z,2.30
2022-09-22T23:04:32.944Z,1.90
2022-09-22T23:07:34.303Z,2.10
2022-09-22T23:10:36.318Z,1.93
2022-09-22T23:13:44.712Z,2.30
2022-09-22T23:16:46.986Z,1.97
2022-09-22T23:19:49.693Z,1.90
2022-09-22T23:22:51.076Z,2.17
2022-09-22T23:25:53.820Z,2.00
2022-09-22T23:28:58.458Z,1.80
2022-09-22T23:32:00.000Z,2.00
2022-09-22T23:35:01.593Z,2.00
2022-09-22T23:38:03.370Z,1.80
2022-09-22T23:41:05.450Z,1.80
2022-09-22T23:44:07.228Z,2.10
2022-09-22T23:47:11.303Z,2.00
2022-09-22T23:50:14.554Z,1.70
2022-09-22T23:53:18.093Z,1.90
2022-09-22T23:56:19.745Z,1.97
2022-09-22T23:59:21.166Z,1.80
